sensor_id;sensor_type;location;lat;lon;timestamp;pressure;altitude;pressure_sealevel;temperature
27986;BMP280;15453;53.692;10.168;2023-07-02T00:00:06;99902.53;;;20.03
27986;BMP280;15453;53.692;10.168;2023-07-02T00:02:32;99897.31;;;20.01
27986;BMP280;15453;53.692;10.168;2023-07-02T00:04:57;99899.63;;;19.99
27986;BMP280;15453;53.692;10.168;2023-07-02T00:07:22;99906.34;;;19.98
27986;BMP280;15453;53.692;10.168;2023-07-02T00:09:48;99907.81;;;19.96
27986;BMP280;15453;53.692;10.168;2023-07-02T00:12:13;99896.69;;;19.96
27986;BMP280;15453;53.692;10.168;2023-07-02T00:14:38;99910.09;;;19.94
27986;BMP280;15453;53.692;10.168;2023-07-02T00:17:04;99905.69;;;19.93
27986;BMP280;15453;53.692;10.168;2023-07-02T00:19:29;99907.63;;;19.92
27986;BMP280;15453;53.692;10.168;2023-07-02T00:21:55;99905.19;;;19.91
27986;BMP280;15453;53.692;10.168;2023-07-02T00:24:20;99903.88;;;19.88
27986;BMP280;15453;53.692;10.168;2023-07-02T00:26:46;99902.25;;;19.87
27986;BMP280;15453;53.692;10.168;2023-07-02T00:29:14;99900.31;;;19.88
27986;BMP280;15453;53.692;10.168;2023-07-02T00:31:39;99907.66;;;19.84
27986;BMP280;15453;53.692;10.168;2023-07-02T00:34:05;99906.00;;;19.83
27986;BMP280;15453;53.692;10.168;2023-07-02T00:36:31;99912.72;;;19.82
27986;BMP280;15453;53.692;10.168;2023-07-02T00:38:57;99898.38;;;19.80
27986;BMP280;15453;53.692;10.168;2023-07-02T00:41:23;99897.53;;;19.79
27986;BMP280;15453;53.692;10.168;2023-07-02T00:43:49;99899.84;;;19.77
27986;BMP280;15453;53.692;10.168;2023-07-02T00:46:16;99899.03;;;19.77
27986;BMP280;15453;53.692;10.168;2023-07-02T00:48:51;99900.97;;;19.76
27986;BMP280;15453;53.692;10.168;2023-07-02T00:51:19;99897.41;;;19.76
27986;BMP280;15453;53.692;10.168;2023-07-02T00:53:45;99890.69;;;19.77
27986;BMP280;15453;53.692;10.168;2023-07-02T00:56:11;99896.22;;;19.77
27986;BMP280;15453;53.692;10.168;2023-07-02T00:58:40;99893.78;;;19.75
27986;BMP280;15453;53.692;10.168;2023-07-02T01:01:06;99894.63;;;19.76
27986;BMP280;15453;53.692;10.168;2023-07-02T01:03:31;99888.22;;;19.75
27986;BMP280;15453;53.692;10.168;2023-07-02T01:05:58;99902.94;;;19.76
27986;BMP280;15453;53.692;10.168;2023-07-02T01:08:23;99899.34;;;19.75
27986;BMP280;15453;53.692;10.168;2023-07-02T01:10:49;99895.41;;;19.76
27986;BMP280;15453;53.692;10.168;2023-07-02T01:13:18;99886.28;;;19.76
27986;BMP280;15453;53.692;10.168;2023-07-02T01:15:44;99886.28;;;19.76
27986;BMP280;15453;53.692;10.168;2023-07-02T01:18:11;99884.28;;;19.76
27986;BMP280;15453;53.692;10.168;2023-07-02T01:20:36;99882.34;;;19.77
27986;BMP280;15453;53.692;10.168;2023-07-02T01:23:02;99887.91;;;19.77
27986;BMP280;15453;53.692;10.168;2023-07-02T01:25:29;99887.91;;;19.77
27986;BMP280;15453;53.692;10.168;2023-07-02T01:27:54;99885.13;;;19.77
27986;BMP280;15453;53.692;10.168;2023-07-02T01:30:20;99891.00;;;19.75
27986;BMP280;15453;53.692;10.168;2023-07-02T01:32:46;99886.09;;;19.72
27986;BMP280;15453;53.692;10.168;2023-07-02T01:35:11;99889.25;;;19.71
27986;BMP280;15453;53.692;10.168;2023-07-02T01:37:36;99892.34;;;19.69
27986;BMP280;15453;53.692;10.168;2023-07-02T01:40:05;99894.28;;;19.69
27986;BMP280;15453;53.692;10.168;2023-07-02T01:42:31;99888.25;;;19.67
27986;BMP280;15453;53.692;10.168;2023-07-02T01:44:56;99878.78;;;19.68
27986;BMP280;15453;53.692;10.168;2023-07-02T01:47:22;99881.06;;;19.66
27986;BMP280;15453;53.692;10.168;2023-07-02T01:49:47;99875.50;;;19.66
27986;BMP280;15453;53.692;10.168;2023-07-02T01:52:12;99883.50;;;19.67
27986;BMP280;15453;53.692;10.168;2023-07-02T01:54:37;99888.25;;;19.67
27986;BMP280;15453;53.692;10.168;2023-07-02T01:57:03;99883.19;;;19.69
27986;BMP280;15453;53.692;10.168;2023-07-02T01:59:29;99881.56;;;19.68
27986;BMP280;15453;53.692;10.168;2023-07-02T02:01:54;99881.22;;;19.69
27986;BMP280;15453;53.692;10.168;2023-07-02T02:04:19;99884.81;;;19.70
27986;BMP280;15453;53.692;10.168;2023-07-02T02:06:45;99876.78;;;19.68
27986;BMP280;15453;53.692;10.168;2023-07-02T02:09:11;99882.03;;;19.70
27986;BMP280;15453;53.692;10.168;2023-07-02T02:11:45;99885.63;;;19.70
27986;BMP280;15453;53.692;10.168;2023-07-02T02:14:11;99874.84;;;19.69
27986;BMP280;15453;53.692;10.168;2023-07-02T02:16:36;99877.63;;;19.69
27986;BMP280;15453;53.692;10.168;2023-07-02T02:19:02;99877.94;;;19.67
27986;BMP280;15453;53.692;10.168;2023-07-02T02:21:28;99885.47;;;19.67
27986;BMP280;15453;53.692;10.168;2023-07-02T02:23:53;99881.06;;;19.66
27986;BMP280;15453;53.692;10.168;2023-07-02T02:26:19;99873.41;;;19.63
27986;BMP280;15453;53.692;10.168;2023-07-02T02:28:47;99867.84;;;19.63
27986;BMP280;15453;53.692;10.168;2023-07-02T02:31:12;99869.28;;;19.60
27986;BMP280;15453;53.692;10.168;2023-07-02T02:33:37;99871.59;;;19.58
27986;BMP280;15453;53.692;10.168;2023-07-02T02:36:03;99876.69;;;19.56
27986;BMP280;15453;53.692;10.168;2023-07-02T02:38:28;99882.06;;;19.53
27986;BMP280;15453;53.692;10.168;2023-07-02T02:40:53;99878.47;;;19.52
27986;BMP280;15453;53.692;10.168;2023-07-02T02:43:19;99891.88;;;19.50
27986;BMP280;15453;53.692;10.168;2023-07-02T02:45:46;99894.16;;;19.48
27986;BMP280;15453;53.692;10.168;2023-07-02T02:48:11;99888.09;;;19.46
27986;BMP280;15453;53.692;10.168;2023-07-02T02:50:37;99896.28;;;19.43
27986;BMP280;15453;53.692;10.168;2023-07-02T02:53:06;99895.78;;;19.41
27986;BMP280;15453;53.692;10.168;2023-07-02T02:55:32;99894.47;;;19.38
27986;BMP280;15453;53.692;10.168;2023-07-02T02:57:57;99885.34;;;19.38
27986;BMP280;15453;53.692;10.168;2023-07-02T03:00:22;99897.09;;;19.35
27986;BMP280;15453;53.692;10.168;2023-07-02T03:02:47;99895.81;;;19.32
27986;BMP280;15453;53.692;10.168;2023-07-02T03:05:13;99895.31;;;19.30
27986;BMP280;15453;53.692;10.168;2023-07-02T03:07:41;99892.06;;;19.28
27986;BMP280;15453;53.692;10.168;2023-07-02T03:10:06;99899.88;;;19.26
27986;BMP280;15453;53.692;10.168;2023-07-02T03:12:32;99900.69;;;19.27
27986;BMP280;15453;53.692;10.168;2023-07-02T03:14:57;99900.69;;;19.27
27986;BMP280;15453;53.692;10.168;2023-07-02T03:17:22;99892.50;;;19.22
27986;BMP280;15453;53.692;10.168;2023-07-02T03:19:48;99891.69;;;19.21
27986;BMP280;15453;53.692;10.168;2023-07-02T03:22:13;99906.38;;;19.22
27986;BMP280;15453;53.692;10.168;2023-07-02T03:24:39;99906.38;;;19.22
27986;BMP280;15453;53.692;10.168;2023-07-02T03:27:04;99904.25;;;19.19
27986;BMP280;15453;53.692;10.168;2023-07-02T03:29:30;99902.00;;;19.21
27986;BMP280;15453;53.692;10.168;2023-07-02T03:31:56;99902.00;;;19.21
27986;BMP280;15453;53.692;10.168;2023-07-02T03:34:22;99902.63;;;19.18
27986;BMP280;15453;53.692;10.168;2023-07-02T03:36:48;99892.69;;;19.17
27986;BMP280;15453;53.692;10.168;2023-07-02T03:39:14;99888.25;;;19.16
27986;BMP280;15453;53.692;10.168;2023-07-02T03:41:39;99884.69;;;19.15
27986;BMP280;15453;53.692;10.168;2023-07-02T03:44:04;99896.91;;;19.14
27986;BMP280;15453;53.692;10.168;2023-07-02T03:46:30;99898.03;;;19.13
27986;BMP280;15453;53.692;10.168;2023-07-02T03:48:56;99904.09;;;19.15
27986;BMP280;15453;53.692;10.168;2023-07-02T03:51:21;99909.97;;;19.14
27986;BMP280;15453;53.692;10.168;2023-07-02T03:53:46;99909.97;;;19.14
27986;BMP280;15453;53.692;10.168;2023-07-02T03:56:12;99901.47;;;19.10
27986;BMP280;15453;53.692;10.168;2023-07-02T03:58:37;99893.97;;;19.11
27986;BMP280;15453;53.692;10.168;2023-07-02T04:01:02;99905.91;;;19.11
27986;BMP280;15453;53.692;10.168;2023-07-02T04:03:27;99920.09;;;19.18
27986;BMP280;15453;53.692;10.168;2023-07-02T04:05:53;99920.09;;;19.18
27986;BMP280;15453;53.692;10.168;2023-07-02T04:08:18;99916.84;;;19.16
27986;BMP280;15453;53.692;10.168;2023-07-02T04:10:46;99913.72;;;19.18
27986;BMP280;15453;53.692;10.168;2023-07-02T04:13:11;99925.53;;;19.23
27986;BMP280;15453;53.692;10.168;2023-07-02T04:15:36;99925.19;;;19.25
27986;BMP280;15453;53.692;10.168;2023-07-02T04:18:02;99925.19;;;19.25
27986;BMP280;15453;53.692;10.168;2023-07-02T04:20:27;99922.22;;;19.21
27986;BMP280;15453;53.692;10.168;2023-07-02T04:22:53;99919.13;;;19.23
27986;BMP280;15453;53.692;10.168;2023-07-02T04:25:19;99916.34;;;19.23
27986;BMP280;15453;53.692;10.168;2023-07-02T04:27:44;99915.03;;;19.20
27986;BMP280;15453;53.692;10.168;2023-07-02T04:30:11;99917.81;;;19.20
27986;BMP280;15453;53.692;10.168;2023-07-02T04:32:37;99914.72;;;19.22
27986;BMP280;15453;53.692;10.168;2023-07-02T04:35:09;99911.94;;;19.22
27986;BMP280;15453;53.692;10.168;2023-07-02T04:37:35;99925.81;;;19.22
27986;BMP280;15453;53.692;10.168;2023-07-02T04:40:01;99925.81;;;19.22
27986;BMP280;15453;53.692;10.168;2023-07-02T04:42:29;99926.47;;;19.19
27986;BMP280;15453;53.692;10.168;2023-07-02T04:44:57;99922.53;;;19.20
27986;BMP280;15453;53.692;10.168;2023-07-02T04:47:27;99930.53;;;19.21
27986;BMP280;15453;53.692;10.168;2023-07-02T04:49:52;99930.53;;;19.21
27986;BMP280;15453;53.692;10.168;2023-07-02T04:52:17;99928.09;;;19.20
27986;BMP280;15453;53.692;10.168;2023-07-02T04:54:42;99924.50;;;19.19
27986;BMP280;15453;53.692;10.168;2023-07-02T04:57:08;99928.09;;;19.20
27986;BMP280;15453;53.692;10.168;2023-07-02T04:59:33;99939.41;;;19.23
27986;BMP280;15453;53.692;10.168;2023-07-02T05:01:58;99939.41;;;19.23
27986;BMP280;15453;53.692;10.168;2023-07-02T05:04:23;99931.69;;;19.20
27986;BMP280;15453;53.692;10.168;2023-07-02T05:06:49;99932.72;;;19.24
27986;BMP280;15453;53.692;10.168;2023-07-02T05:09:14;99932.72;;;19.24
27986;BMP280;15453;53.692;10.168;2023-07-02T05:11:39;99936.94;;;19.22
27986;BMP280;15453;53.692;10.168;2023-07-02T05:14:05;99938.41;;;19.28
27986;BMP280;15453;53.692;10.168;2023-07-02T05:16:30;99941.38;;;19.31
27986;BMP280;15453;53.692;10.168;2023-07-02T05:18:55;99941.38;;;19.31
27986;BMP280;15453;53.692;10.168;2023-07-02T05:21:22;99923.06;;;19.30
27986;BMP280;15453;53.692;10.168;2023-07-02T05:23:48;99926.34;;;19.32
27986;BMP280;15453;53.692;10.168;2023-07-02T05:26:13;99934.00;;;19.35
27986;BMP280;15453;53.692;10.168;2023-07-02T05:28:38;99922.56;;;19.37
27986;BMP280;15453;53.692;10.168;2023-07-02T05:31:04;99924.69;;;19.40
27986;BMP280;15453;53.692;10.168;2023-07-02T05:33:29;99929.63;;;19.43
27986;BMP280;15453;53.692;10.168;2023-07-02T05:35:57;99925.84;;;19.47
27986;BMP280;15453;53.692;10.168;2023-07-02T05:38:23;99934.66;;;19.49
27986;BMP280;15453;53.692;10.168;2023-07-02T05:40:49;99927.66;;;19.52
27986;BMP280;15453;53.692;10.168;2023-07-02T05:43:14;99940.06;;;19.54
27986;BMP280;15453;53.692;10.168;2023-07-02T05:45:39;99938.91;;;19.55
27986;BMP280;15453;53.692;10.168;2023-07-02T05:48:05;99949.53;;;19.62
27986;BMP280;15453;53.692;10.168;2023-07-02T05:50:33;99948.88;;;19.65
27986;BMP280;15453;53.692;10.168;2023-07-02T05:52:59;99948.88;;;19.65
27986;BMP280;15453;53.692;10.168;2023-07-02T05:55:24;99947.56;;;19.62
27986;BMP280;15453;53.692;10.168;2023-07-02T05:57:52;99947.72;;;19.66
27986;BMP280;15453;53.692;10.168;2023-07-02T06:00:17;99944.16;;;19.65
27986;BMP280;15453;53.692;10.168;2023-07-02T06:02:42;99949.38;;;19.67
27986;BMP280;15453;53.692;10.168;2023-07-02T06:05:08;99947.56;;;19.71
27986;BMP280;15453;53.692;10.168;2023-07-02T06:07:33;99947.56;;;19.71
27986;BMP280;15453;53.692;10.168;2023-07-02T06:09:58;99953.94;;;19.71
27986;BMP280;15453;53.692;10.168;2023-07-02T06:12:24;99954.44;;;19.73
27986;BMP280;15453;53.692;10.168;2023-07-02T06:14:49;99943.78;;;19.75
27986;BMP280;15453;53.692;10.168;2023-07-02T06:17:14;99950.31;;;19.88
27986;BMP280;15453;53.692;10.168;2023-07-02T06:19:40;99950.31;;;19.88
27986;BMP280;15453;53.692;10.168;2023-07-02T06:22:05;99930.69;;;19.84
27986;BMP280;15453;53.692;10.168;2023-07-02T06:24:31;99936.44;;;19.88
27986;BMP280;15453;53.692;10.168;2023-07-02T06:26:56;99934.13;;;19.90
27986;BMP280;15453;53.692;10.168;2023-07-02T06:29:23;99940.97;;;19.92
27986;BMP280;15453;53.692;10.168;2023-07-02T06:31:48;99940.00;;;19.97
27986;BMP280;15453;53.692;10.168;2023-07-02T06:34:13;99938.19;;;20.01
27986;BMP280;15453;53.692;10.168;2023-07-02T06:36:39;99936.38;;;20.05
27986;BMP280;15453;53.692;10.168;2023-07-02T06:39:04;99930.50;;;20.15
27986;BMP280;15453;53.692;10.168;2023-07-02T06:41:30;99930.50;;;20.15
27986;BMP280;15453;53.692;10.168;2023-07-02T06:43:55;99955.84;;;20.22
27986;BMP280;15453;53.692;10.168;2023-07-02T06:46:20;99963.50;;;20.25
27986;BMP280;15453;53.692;10.168;2023-07-02T06:48:46;99963.50;;;20.25
27986;BMP280;15453;53.692;10.168;2023-07-02T06:51:11;99960.38;;;20.26
27986;BMP280;15453;53.692;10.168;2023-07-02T06:53:40;99954.16;;;20.29
27986;BMP280;15453;53.692;10.168;2023-07-02T06:56:08;99961.53;;;20.34
27986;BMP280;15453;53.692;10.168;2023-07-02T06:58:33;99976.22;;;20.43
27986;BMP280;15453;53.692;10.168;2023-07-02T07:00:58;99976.22;;;20.43
27986;BMP280;15453;53.692;10.168;2023-07-02T07:03:23;99967.03;;;20.42
27986;BMP280;15453;53.692;10.168;2023-07-02T07:05:49;99971.63;;;20.47
27986;BMP280;15453;53.692;10.168;2023-07-02T07:08:15;99975.03;;;20.52
27986;BMP280;15453;53.692;10.168;2023-07-02T07:10:40;99974.00;;;20.57
27986;BMP280;15453;53.692;10.168;2023-07-02T07:13:05;99980.22;;;20.62
27986;BMP280;15453;53.692;10.168;2023-07-02T07:15:33;99987.06;;;20.65
27986;BMP280;15453;53.692;10.168;2023-07-02T07:18:00;99988.53;;;20.71
27986;BMP280;15453;53.692;10.168;2023-07-02T07:20:25;99992.63;;;20.73
27986;BMP280;15453;53.692;10.168;2023-07-02T07:22:50;100002.41;;;20.79
27986;BMP280;15453;53.692;10.168;2023-07-02T07:25:15;100002.41;;;20.79
27986;BMP280;15453;53.692;10.168;2023-07-02T07:27:41;99997.50;;;20.76
27986;BMP280;15453;53.692;10.168;2023-07-02T07:30:06;100009.13;;;20.78
27986;BMP280;15453;53.692;10.168;2023-07-02T07:32:35;100002.25;;;20.76
27986;BMP280;15453;53.692;10.168;2023-07-02T07:35:00;100010.13;;;20.74
27986;BMP280;15453;53.692;10.168;2023-07-02T07:37:26;100016.38;;;20.71
27986;BMP280;15453;53.692;10.168;2023-07-02T07:39:52;100018.19;;;20.67
27986;BMP280;15453;53.692;10.168;2023-07-02T07:42:17;100014.56;;;20.66
27986;BMP280;15453;53.692;10.168;2023-07-02T07:44:44;100011.28;;;20.64
27986;BMP280;15453;53.692;10.168;2023-07-02T07:47:10;100006.41;;;20.61
27986;BMP280;15453;53.692;10.168;2023-07-02T07:49:35;100016.72;;;20.61
27986;BMP280;15453;53.692;10.168;2023-07-02T07:52:00;100019.63;;;20.64
27986;BMP280;15453;53.692;10.168;2023-07-02T07:54:26;100019.63;;;20.64
27986;BMP280;15453;53.692;10.168;2023-07-02T07:56:51;100024.34;;;20.72
27986;BMP280;15453;53.692;10.168;2023-07-02T07:59:18;100024.34;;;20.72
27986;BMP280;15453;53.692;10.168;2023-07-02T08:01:43;100012.91;;;20.74
27986;BMP280;15453;53.692;10.168;2023-07-02T08:04:09;100028.28;;;20.80
27986;BMP280;15453;53.692;10.168;2023-07-02T08:06:34;100026.78;;;20.82
27986;BMP280;15453;53.692;10.168;2023-07-02T08:08:59;100013.16;;;20.89
27986;BMP280;15453;53.692;10.168;2023-07-02T08:11:25;100013.00;;;20.86
27986;BMP280;15453;53.692;10.168;2023-07-02T08:13:50;100013.69;;;20.91
27986;BMP280;15453;53.692;10.168;2023-07-02T08:16:15;100018.25;;;20.96
27986;BMP280;15453;53.692;10.168;2023-07-02T08:18:41;100024.41;;;21.01
27986;BMP280;15453;53.692;10.168;2023-07-02T08:21:09;100015.91;;;21.06
27986;BMP280;15453;53.692;10.168;2023-07-02T08:23:36;100021.59;;;21.10
27986;BMP280;15453;53.692;10.168;2023-07-02T08:26:04;100022.69;;;21.17
27986;BMP280;15453;53.692;10.168;2023-07-02T08:28:30;100030.84;;;21.22
27986;BMP280;15453;53.692;10.168;2023-07-02T08:30:55;100017.56;;;21.28
27986;BMP280;15453;53.692;10.168;2023-07-02T08:33:20;100021.25;;;21.40
27986;BMP280;15453;53.692;10.168;2023-07-02T08:35:46;100021.25;;;21.40
27986;BMP280;15453;53.692;10.168;2023-07-02T08:38:11;100025.88;;;21.36
27986;BMP280;15453;53.692;10.168;2023-07-02T08:40:36;100048.50;;;21.35
27986;BMP280;15453;53.692;10.168;2023-07-02T08:43:01;100048.50;;;21.35
27986;BMP280;15453;53.692;10.168;2023-07-02T08:45:30;100062.94;;;21.28
27986;BMP280;15453;53.692;10.168;2023-07-02T08:47:59;100062.94;;;21.28
27986;BMP280;15453;53.692;10.168;2023-07-02T08:50:25;100059.41;;;21.19
27986;BMP280;15453;53.692;10.168;2023-07-02T08:52:52;100054.94;;;21.18
27986;BMP280;15453;53.692;10.168;2023-07-02T08:55:18;100059.09;;;21.12
27986;BMP280;15453;53.692;10.168;2023-07-02T08:57:52;100053.72;;;21.07
27986;BMP280;15453;53.692;10.168;2023-07-02T09:00:17;100056.69;;;21.02
27986;BMP280;15453;53.692;10.168;2023-07-02T09:02:43;100050.63;;;21.00
27986;BMP280;15453;53.692;10.168;2023-07-02T09:05:08;100049.66;;;20.96
27986;BMP280;15453;53.692;10.168;2023-07-02T09:07:44;100044.09;;;20.96
27986;BMP280;15453;53.692;10.168;2023-07-02T09:10:10;100052.56;;;21.08
27986;BMP280;15453;53.692;10.168;2023-07-02T09:12:35;100052.56;;;21.08
27986;BMP280;15453;53.692;10.168;2023-07-02T09:15:05;100047.13;;;21.12
27986;BMP280;15453;53.692;10.168;2023-07-02T09:17:37;100047.56;;;21.22
27986;BMP280;15453;53.692;10.168;2023-07-02T09:20:06;100056.72;;;21.31
27986;BMP280;15453;53.692;10.168;2023-07-02T09:22:34;100058.75;;;21.43
27986;BMP280;15453;53.692;10.168;2023-07-02T09:25:01;100062.75;;;21.54
27986;BMP280;15453;53.692;10.168;2023-07-02T09:27:41;100062.59;;;21.59
27986;BMP280;15453;53.692;10.168;2023-07-02T09:30:10;100090.94;;;21.61
27986;BMP280;15453;53.692;10.168;2023-07-02T09:32:37;100120.25;;;21.67
27986;BMP280;15453;53.692;10.168;2023-07-02T09:35:03;100129.28;;;21.64
27986;BMP280;15453;53.692;10.168;2023-07-02T09:37:30;100120.63;;;21.57
27986;BMP280;15453;53.692;10.168;2023-07-02T09:39:55;100122.84;;;21.43
27986;BMP280;15453;53.692;10.168;2023-07-02T09:42:21;100120.13;;;21.26
27986;BMP280;15453;53.692;10.168;2023-07-02T09:44:48;100120.34;;;21.12
27986;BMP280;15453;53.692;10.168;2023-07-02T09:47:18;100116.28;;;21.01
27986;BMP280;15453;53.692;10.168;2023-07-02T09:50:03;100126.97;;;20.91
27986;BMP280;15453;53.692;10.168;2023-07-02T09:52:31;100129.25;;;20.80
27986;BMP280;15453;53.692;10.168;2023-07-02T09:55:01;100119.13;;;20.76
27986;BMP280;15453;53.692;10.168;2023-07-02T09:57:27;100119.13;;;20.76
27986;BMP280;15453;53.692;10.168;2023-07-02T09:59:55;100111.13;;;20.74
27986;BMP280;15453;53.692;10.168;2023-07-02T10:02:20;100110.28;;;20.74
27986;BMP280;15453;53.692;10.168;2023-07-02T10:04:47;100110.09;;;20.79
27986;BMP280;15453;53.692;10.168;2023-07-02T10:07:13;100107.81;;;20.98
27986;BMP280;15453;53.692;10.168;2023-07-02T10:09:45;100107.81;;;20.98
27986;BMP280;15453;53.692;10.168;2023-07-02T10:12:18;100099.19;;;21.20
27986;BMP280;15453;53.692;10.168;2023-07-02T10:14:45;100099.19;;;21.20
27986;BMP280;15453;53.692;10.168;2023-07-02T10:17:29;100097.66;;;21.31
27986;BMP280;15453;53.692;10.168;2023-07-02T10:19:57;100095.44;;;21.45
27986;BMP280;15453;53.692;10.168;2023-07-02T10:22:23;100096.34;;;21.86
27986;BMP280;15453;53.692;10.168;2023-07-02T10:24:56;100096.34;;;21.86
27986;BMP280;15453;53.692;10.168;2023-07-02T10:27:38;100101.41;;;21.93
27986;BMP280;15453;53.692;10.168;2023-07-02T10:30:05;100096.69;;;22.05
27986;BMP280;15453;53.692;10.168;2023-07-02T10:32:32;100103.94;;;22.18
27986;BMP280;15453;53.692;10.168;2023-07-02T10:35:15;100104.84;;;22.31
27986;BMP280;15453;53.692;10.168;2023-07-02T10:37:41;100087.81;;;22.45
27986;BMP280;15453;53.692;10.168;2023-07-02T10:40:07;100095.44;;;22.56
27986;BMP280;15453;53.692;10.168;2023-07-02T10:42:32;100111.44;;;22.80
27986;BMP280;15453;53.692;10.168;2023-07-02T10:44:59;100111.44;;;22.80
27986;BMP280;15453;53.692;10.168;2023-07-02T10:47:25;100093.31;;;22.86
27986;BMP280;15453;53.692;10.168;2023-07-02T10:49:50;100087.72;;;22.98
27986;BMP280;15453;53.692;10.168;2023-07-02T10:52:15;100100.31;;;23.04
27986;BMP280;15453;53.692;10.168;2023-07-02T10:54:42;100089.41;;;23.11
27986;BMP280;15453;53.692;10.168;2023-07-02T10:57:09;100101.84;;;23.13
27986;BMP280;15453;53.692;10.168;2023-07-02T10:59:34;100105.38;;;23.22
27986;BMP280;15453;53.692;10.168;2023-07-02T11:02:00;100101.50;;;23.27
27986;BMP280;15453;53.692;10.168;2023-07-02T11:04:31;100103.28;;;23.31
27986;BMP280;15453;53.692;10.168;2023-07-02T11:06:57;100114.13;;;23.45
27986;BMP280;15453;53.692;10.168;2023-07-02T11:09:22;100114.13;;;23.45
27986;BMP280;15453;53.692;10.168;2023-07-02T11:11:59;100120.63;;;23.49
27986;BMP280;15453;53.692;10.168;2023-07-02T11:14:35;100113.97;;;23.53
27986;BMP280;15453;53.692;10.168;2023-07-02T11:17:06;100109.06;;;23.62
27986;BMP280;15453;53.692;10.168;2023-07-02T11:19:35;100111.41;;;23.72
27986;BMP280;15453;53.692;10.168;2023-07-02T11:22:01;100113.13;;;23.77
27986;BMP280;15453;53.692;10.168;2023-07-02T11:26:57;100108.25;;;23.86
27986;BMP280;15453;53.692;10.168;2023-07-02T11:29:22;100113.28;;;23.92
27986;BMP280;15453;53.692;10.168;2023-07-02T11:31:48;100127.81;;;23.98
27986;BMP280;15453;53.692;10.168;2023-07-02T11:34:14;100141.44;;;23.99
27986;BMP280;15453;53.692;10.168;2023-07-02T11:36:40;100184.13;;;23.96
27986;BMP280;15453;53.692;10.168;2023-07-02T11:39:05;100184.13;;;23.96
27986;BMP280;15453;53.692;10.168;2023-07-02T11:41:38;100185.16;;;23.80
27986;BMP280;15453;53.692;10.168;2023-07-02T11:44:04;100191.31;;;23.61
27986;BMP280;15453;53.692;10.168;2023-07-02T11:46:29;100175.94;;;23.43
27986;BMP280;15453;53.692;10.168;2023-07-02T11:48:54;100176.09;;;23.14
27986;BMP280;15453;53.692;10.168;2023-07-02T11:51:21;100176.09;;;23.14
27986;BMP280;15453;53.692;10.168;2023-07-02T11:53:46;100164.06;;;23.02
27986;BMP280;15453;53.692;10.168;2023-07-02T11:56:11;100164.06;;;23.02
27986;BMP280;15453;53.692;10.168;2023-07-02T11:58:38;100157.69;;;23.01
27986;BMP280;15453;53.692;10.168;2023-07-02T12:01:03;100161.75;;;23.04
27986;BMP280;15453;53.692;10.168;2023-07-02T12:03:28;100169.56;;;23.10
27986;BMP280;15453;53.692;10.168;2023-07-02T12:05:55;100170.28;;;23.19
27986;BMP280;15453;53.692;10.168;2023-07-02T12:08:21;100173.47;;;23.30
27986;BMP280;15453;53.692;10.168;2023-07-02T12:10:46;100156.63;;;23.38
27986;BMP280;15453;53.692;10.168;2023-07-02T12:13:11;100177.69;;;23.48
27986;BMP280;15453;53.692;10.168;2023-07-02T12:15:37;100189.44;;;23.53
27986;BMP280;15453;53.692;10.168;2023-07-02T12:18:02;100194.25;;;23.53
27986;BMP280;15453;53.692;10.168;2023-07-02T12:20:28;100204.13;;;23.50
27986;BMP280;15453;53.692;10.168;2023-07-02T12:22:53;100216.34;;;23.46
27986;BMP280;15453;53.692;10.168;2023-07-02T12:25:18;100208.28;;;23.32
27986;BMP280;15453;53.692;10.168;2023-07-02T12:27:44;100208.28;;;23.32
27986;BMP280;15453;53.692;10.168;2023-07-02T12:30:09;100189.38;;;23.17
27986;BMP280;15453;53.692;10.168;2023-07-02T12:32:35;100187.63;;;23.13
27986;BMP280;15453;53.692;10.168;2023-07-02T12:35:00;100192.53;;;23.16
27986;BMP280;15453;53.692;10.168;2023-07-02T12:37:26;100192.81;;;23.35
27986;BMP280;15453;53.692;10.168;2023-07-02T12:39:51;100192.81;;;23.35
27986;BMP280;15453;53.692;10.168;2023-07-02T12:42:16;100188.16;;;23.39
27986;BMP280;15453;53.692;10.168;2023-07-02T12:44:42;100192.81;;;23.47
27986;BMP280;15453;53.692;10.168;2023-07-02T12:47:07;100196.81;;;23.70
27986;BMP280;15453;53.692;10.168;2023-07-02T12:49:34;100198.44;;;23.83
27986;BMP280;15453;53.692;10.168;2023-07-02T12:51:59;100198.44;;;23.83
27986;BMP280;15453;53.692;10.168;2023-07-02T12:54:24;100205.91;;;23.91
27986;BMP280;15453;53.692;10.168;2023-07-02T12:56:50;100185.50;;;24.02
27986;BMP280;15453;53.692;10.168;2023-07-02T12:59:16;100195.41;;;24.12
27986;BMP280;15453;53.692;10.168;2023-07-02T13:01:41;100196.09;;;24.21
27986;BMP280;15453;53.692;10.168;2023-07-02T13:04:06;100196.53;;;24.23
27986;BMP280;15453;53.692;10.168;2023-07-02T13:06:31;100190.59;;;24.24
27986;BMP280;15453;53.692;10.168;2023-07-02T13:08:59;100192.69;;;24.27
27986;BMP280;15453;53.692;10.168;2023-07-02T13:11:31;100200.50;;;24.34
27986;BMP280;15453;53.692;10.168;2023-07-02T13:13:59;100188.34;;;24.42
27986;BMP280;15453;53.692;10.168;2023-07-02T13:16:24;100185.41;;;24.50
27986;BMP280;15453;53.692;10.168;2023-07-02T13:18:50;100186.34;;;24.54
27986;BMP280;15453;53.692;10.168;2023-07-02T13:21:15;100195.66;;;24.58
27986;BMP280;15453;53.692;10.168;2023-07-02T13:23:41;100210.56;;;24.62
27986;BMP280;15453;53.692;10.168;2023-07-02T13:26:07;100194.59;;;24.63
27986;BMP280;15453;53.692;10.168;2023-07-02T13:28:32;100226.94;;;24.60
27986;BMP280;15453;53.692;10.168;2023-07-02T13:30:58;100203.84;;;24.51
27986;BMP280;15453;53.692;10.168;2023-07-02T13:33:24;100203.84;;;24.51
27986;BMP280;15453;53.692;10.168;2023-07-02T13:35:49;100198.94;;;24.48
27986;BMP280;15453;53.692;10.168;2023-07-02T13:38:14;100217.69;;;24.48
27986;BMP280;15453;53.692;10.168;2023-07-02T13:40:40;100222.00;;;24.69
27986;BMP280;15453;53.692;10.168;2023-07-02T13:43:05;100222.00;;;24.69
27986;BMP280;15453;53.692;10.168;2023-07-02T13:45:30;100207.63;;;24.71
27986;BMP280;15453;53.692;10.168;2023-07-02T13:47:56;100226.50;;;24.86